TimeEST,TemperatureF,Dew PointF,Humidity,Sea Level PressureIn,VisibilityMPH,Wind Direction,Wind SpeedMPH,Gust SpeedMPH,PrecipitationIn,Events,Conditions,WindDirDegrees,DateUTC
12:05 AM,46.4,44.6,93,30.03,3.0,SSW,3.5,-,N/A,,Overcast,210,2012-12-09 05:05:00
12:54 AM,46.9,44.1,90,30.05,5.0,Calm,Calm,-,N/A,,Overcast,0,2012-12-09 05:54:00
1:01 AM,46.4,44.6,93,30.05,5.0,Calm,Calm,-,N/A,,Overcast,0,2012-12-09 06:01:00
1:13 AM,46.4,44.6,93,30.05,6.0,NNW,3.5,-,N/A,,Overcast,330,2012-12-09 06:13:00
1:54 AM,46.9,42.1,83,30.08,10.0,North,8.1,-,N/A,,Overcast,360,2012-12-09 06:54:00
2:10 AM,46.4,39.2,76,30.08,10.0,North,5.8,-,N/A,,Overcast,360,2012-12-09 07:10:00
2:26 AM,46.4,39.2,76,30.08,10.0,North,12.7,-,N/A,,Overcast,10,2012-12-09 07:26:00
2:54 AM,45.0,39.0,80,30.10,10.0,North,9.2,-,N/A,,Overcast,10,2012-12-09 07:54:00
3:54 AM,42.1,35.1,76,30.13,10.0,North,12.7,-,N/A,,Overcast,360,2012-12-09 08:54:00
4:54 AM,39.9,33.1,77,30.16,10.0,NNE,9.2,-,N/A,,Overcast,20,2012-12-09 09:54:00
5:54 AM,39.0,32.0,76,30.19,10.0,NNE,5.8,18.4,N/A,,Overcast,30,2012-12-09 10:54:00
6:54 AM,37.9,30.9,76,30.22,10.0,North,10.4,-,N/A,,Overcast,10,2012-12-09 11:54:00
7:54 AM,37.9,30.9,76,30.24,10.0,North,4.6,-,N/A,,Overcast,360,2012-12-09 12:54:00
8:54 AM,37.9,30.9,76,30.24,10.0,NE,5.8,-,N/A,,Mostly Cloudy,40,2012-12-09 13:54:00
9:02 AM,37.4,30.2,75,30.23,10.0,NNE,6.9,-,N/A,,Scattered Clouds,30,2012-12-09 14:02:00
9:54 AM,37.9,30.0,73,30.24,10.0,NE,8.1,-,N/A,,Mostly Cloudy,40,2012-12-09 14:54:00
10:54 AM,39.0,30.0,70,30.23,10.0,NNE,8.1,-,N/A,,Mostly Cloudy,20,2012-12-09 15:54:00
11:54 AM,39.9,30.0,68,30.21,10.0,North,6.9,-,N/A,,Overcast,10,2012-12-09 16:54:00
12:54 PM,39.9,30.9,70,30.18,10.0,NNE,6.9,-,0.00,Rain,Light Rain,20,2012-12-09 17:54:00
1:54 PM,41.0,32.0,70,30.17,10.0,NE,4.6,-,0.00,Rain,Light Rain,40,2012-12-09 18:54:00
2:54 PM,42.1,32.0,67,30.16,10.0,Calm,Calm,-,0.00,,Overcast,0,2012-12-09 19:54:00
3:54 PM,42.1,33.1,70,30.16,10.0,NE,3.5,-,N/A,,Overcast,40,2012-12-09 20:54:00
4:54 PM,42.1,28.0,58,30.14,10.0,Calm,Calm,-,0.00,,Overcast,0,2012-12-09 21:54:00
5:54 PM,41.0,28.0,60,30.14,10.0,Calm,Calm,-,0.00,,Overcast,0,2012-12-09 22:54:00
6:54 PM,39.9,32.0,73,30.12,10.0,SE,6.9,17.3,N/A,,Overcast,130,2012-12-09 23:54:00
7:54 PM,41.0,34.0,76,30.09,10.0,Variable,3.5,-,N/A,,Overcast,0,2012-12-10 00:54:00
8:54 PM,41.0,37.0,86,30.06,10.0,East,3.5,-,0.03,Rain,Light Rain,80,2012-12-10 01:54:00
9:46 PM,42.8,37.4,81,30.02,10.0,Variable,5.8,-,0.00,,Overcast,0,2012-12-10 02:46:00
9:54 PM,42.1,37.9,85,30.03,10.0,ENE,3.5,-,0.00,Rain,Light Rain,60,2012-12-10 02:54:00
10:46 PM,42.8,37.4,81,29.99,10.0,Calm,Calm,-,0.01,Rain,Light Rain,0,2012-12-10 03:46:00
10:54 PM,42.1,37.9,85,30.00,10.0,ENE,4.6,-,0.01,,Overcast,70,2012-12-10 03:54:00
11:54 PM,43.0,39.0,86,29.96,10.0,Calm,Calm,-,N/A,,Overcast,0,2012-12-10 04:54:00